Terminal Aerodrome Forecast
Issued by NWS

Home | Current Version | Previous Version | Text Only | Print | Product List | Glossary On
Versions: 1 2 3 4 5 6 7 8 9 10 11 12 13 14
000
FTUS46 KPDT 251736
TAFBDN
TAF
KBDN 251736Z 2518/2618 VRB05KT P6SM VCSH SCT050 BKN090
     FM252000 33012G22KT P6SM VCSH BKN050 BKN090
     FM260200 32008KT P6SM SCT040 BKN250
     FM260600 VRB03KT P6SM FEW060 BKN200=

USA.gov is the U.S. government's official web portal to all federal, state and local government web resources and services.